< Typhoon 200117 2001 Season Typhoon 200119 >
Typhoon 200118 (FRANCISCO)
General InformationTrack Information on Google MapsDetailed Wind InformationList of All Images || NewsDisaster Info.ResourceGoogle EarthGE AnimationAtom FeedGeoJSON
Detalied Best Track (Time Zone = UTC)
Year Month Day Hour Lat. Long. Pressure (hPa) Wind (kt) Class Image Chart
2001 9 18 00 15.0 166.9 1008 0 2 Image Chart
2001 9 18 06 15.0 166.1 1006 0 2 Image Chart
2001 9 18 12 14.9 165.3 1008 0 2 Image Chart
2001 9 18 18 14.7 164.5 1006 0 2 Image Chart
2001 9 19 00 14.6 163.6 1006 0 2 Image Chart
2001 9 19 06 14.8 162.8 1006 0 2 Image Chart
2001 9 19 12 14.9 161.9 1004 0 2 Image Chart
2001 9 19 18 15.1 161.0 1002 0 2 Image Chart
2001 9 20 00 15.6 159.9 996 35 3 Image Chart
2001 9 20 06 16.2 158.6 996 35 3 Image Chart
2001 9 20 12 17.1 157.0 996 35 3 Image Chart
2001 9 20 18 17.9 155.5 992 40 3 Image Chart
2001 9 21 00 18.4 154.0 992 40 3 Image Chart
2001 9 21 06 18.8 153.1 992 40 3 Image Chart
2001 9 21 12 19.2 152.1 990 45 3 Image Chart
2001 9 21 18 19.9 151.2 985 50 4 Image Chart
2001 9 22 00 20.8 150.0 975 60 4 Image Chart
2001 9 22 06 21.6 149.3 970 65 5 Image Chart
2001 9 22 12 22.6 148.9 965 70 5 Image Chart
2001 9 22 18 23.5 148.4 960 75 5 Image Chart
2001 9 23 00 24.5 148.1 955 75 5 Image Chart
2001 9 23 06 25.5 147.6 950 80 5 Image Chart
2001 9 23 12 26.3 147.6 950 80 5 Image Chart
2001 9 23 18 27.2 147.6 945 85 5 Image Chart
2001 9 24 00 28.4 147.9 945 85 5 Image Chart
2001 9 24 06 29.7 148.2 955 75 5 Image Chart
2001 9 24 12 31.2 148.5 965 70 5 Image Chart
2001 9 24 18 33.4 148.8 970 65 5 Image Chart
2001 9 25 00 35.4 148.4 975 60 4 Image Chart
2001 9 25 06 37.3 149.5 980 55 4 Image Chart
2001 9 25 12 39.3 152.3 985 50 4 Image Chart
2001 9 25 18 41.9 156.5 988 0 6 Image Chart
2001 9 26 00 43.0 160.0 990 0 6 Image Chart
2001 9 26 06 45.6 164.1 992 0 6 Image Chart
2001 9 26 12 47.3 168.8 996 0 6 Image Chart
2001 9 26 18 47.7 175.2 998 0 6 Image Chart
2001 9 27 00 48.6 181.0 998 0 6 Image Chart
Japan Meteorological Agency Best Track Data | Correction Date : 2002-01-24
< Typhoon 200117 2001 Season Typhoon 200119 >

Help